• Join FlightAware (Why Join?)
  • Login
  • US Flag 
06:21AM EDT


 

Airport Tracker/Info


-or-


 

Live Flight TrackerFlight Track Log ✈ UCA3596 ✈ 10-Oct-2013 ✈ KBGM - KIAD

Flight Track Log - Related Links

Times and Time Zones

All times are in EDT time to prevent confusion due to time zone crossing. See the UCA3596 flight status page for this flight to view local times or setup timezone preferences in your user account.

Time Position Orientation Groundspeed Altitude Reporting Facility
EDT Latitude Longitude Course Direction KTS MPH feet Rate Location/Type
02:43PM 42.2136 -76.0625 203° Southwest 148 170 3,600  Level New York Center
02:44PM 42.1664 -76.0894 203° Southwest 146 168 4,900 1,200 Climbing New York Center
02:45PM 42.1189 -76.1275 211° Southwest 176 203 6,100 1,080 Climbing New York Center
02:46PM 42.0736 -76.1658 212° Southwest 196 226 7,100 1,140 Climbing New York Center
02:47PM 42.0194 -76.2117 212° Southwest 209 241 8,400 1,140 Climbing New York Center
02:48PM 41.9697 -76.2522 211° Southwest 214 246 9,400 1,020 Climbing New York Center
02:49PM 41.9219 -76.2928 212° Southwest 220 253 10,500 1,260 Climbing New York Center
02:50PM 41.8742 -76.3333 212° Southwest 215 247 12,000 1,200 Climbing New York Center
02:51PM 41.8267 -76.3711 211° Southwest 215 247 12,900 960 Climbing New York Center
02:52PM 41.7789 -76.4144 214° Southwest 215 247 14,000 1,080 Climbing New York Center
02:53PM 41.7228 -76.4569 209° Southwest 215 247 15,100 960 Climbing New York Center
02:54PM 41.6792 -76.4950 213° Southwest 215 247 16,000 420 Climbing New York Center
02:55PM 41.6228 -76.5400 211° Southwest 225 259 16,000  Level New York Center
02:56PM 41.5578 -76.5956 213° Southwest 249 287 16,000  Level New York Center
02:57PM 41.4989 -76.6458 213° Southwest 254 292 16,000  Level New York Center
02:58PM 41.4406 -76.6878 208° Southwest 260 299 16,000  Level New York Center
02:59PM 41.3817 -76.7433 215° Southwest 265 305 16,000  Level New York Center
03:00PM 41.3169 -76.7847 206° Southwest 265 305 16,000  Level New York Center
03:01PM 41.2353 -76.7967 186° South 265 305 16,000  Level New York Center
03:02PM 41.1636 -76.8122 189° South 265 305 16,000  Level New York Center
03:03PM 41.0919 -76.8253 188° South 265 305 16,000  Level New York Center
03:04PM 41.0183 -76.8406 189° South 265 305 16,000  Level New York Center
03:05PM 40.9489 -76.8536 188° South 260 299 16,000  Level New York Center
03:06PM 40.8792 -76.8694 190° South 260 299 16,000  Level New York Center
03:07PM 40.8161 -76.8803 187° South 260 299 16,000  Level New York Center
03:08PM 40.7422 -76.9011 192° South 254 292 16,000  Level New York Center
03:09PM 40.6808 -76.9203 193° South 254 292 16,000  Level New York Center
03:10PM 40.6044 -76.9436 193° South 254 292 16,000  Level New York Center
03:11PM 40.5472 -76.9631 194° South 254 292 16,000  Level New York Center
03:12PM 40.4708 -76.9861 193° South 254 292 16,000  Level New York Center
03:13PM 40.4094 -77.0053 193° South 254 292 16,000 -180 Level New York Center
03:14PM 40.3331 -77.0308 194° South 259 298 15,700 -900 Descending New York Center
03:15PM 40.2611 -77.0517 192° South 265 305 14,300 -1,320 Descending New York Center
03:16PM 40.1869 -77.0722 192° South 265 305 13,100 -1,380 Descending New York Center
03:17PM 40.1186 -77.1039 200° South 261 300 11,600 -960 Descending New York Center
03:19PM 39.9833 -77.1500 195° South 264 304 10,100 -720 Descending Potomac TRACON
03:20PM 39.9833 -77.2333 270° West 275 316 9,400 -660 Descending Potomac TRACON
03:21PM 39.9500 -77.3000 237° Southwest 269 310 8,900 -240 Descending Potomac TRACON
03:22PM 39.8833 -77.3000 180° South 232 267 9,000 -420 Climbing Potomac TRACON
03:23PM 39.8167 -77.3000 180° South 252 290 8,100 -540 Descending Potomac TRACON
03:24PM 39.7500 -77.3167 191° South 234 269 8,000 -180 Descending Potomac TRACON
03:25PM 39.6833 -77.3167 180° South 227 261 7,800 -540 Descending Potomac TRACON
03:26PM 39.6167 -77.3333 191° South 261 300 7,000 -900 Descending Potomac TRACON
03:27PM 39.5500 -77.3500 191° South 245 282 6,200 -900 Descending Potomac TRACON
03:28PM 39.4833 -77.3500 180° South 243 280 5,300 -600 Descending Potomac TRACON
03:29PM 39.4167 -77.3667 191° South 247 284 5,000 -180 Descending Potomac TRACON
03:30PM 39.3667 -77.3667 180° South 206 237 5,000  Level Potomac TRACON
03:31PM 39.3000 -77.3667 180° South 207 238 5,000  Level Potomac TRACON
03:32PM 39.2500 -77.3667 180° South 208 239 5,000 -240 Level Potomac TRACON
03:33PM 39.1833 -77.3667 180° South 191 220 4,600 -540 Descending Potomac TRACON
03:34PM 39.1333 -77.3667 180° South 194 223 4,000 -360 Descending Potomac TRACON
03:35PM 39.1167 -77.4333 252° West 235 270 4,000  Level Potomac TRACON
03:36PM 39.1000 -77.5000 252° West 233 268 4,000  Level Potomac TRACON
03:37PM 39.1500 -77.5500 322° Northwest 195 224 4,000  Level Potomac TRACON
03:38PM 39.2000 -77.5833 333° Northwest 200 230 4,000  Level Potomac TRACON
03:39PM 39.2500 -77.6167 333° Northwest 202 232 4,000  Level Potomac TRACON
03:40PM 39.3000 -77.6333 346° North 199 229 4,000  Level Potomac TRACON
03:41PM 39.3500 -77.6333 360° North 195 224 4,000  Level Potomac TRACON
03:42PM 39.3833 -77.5833 49° Northeast 179 206 4,000  Level Potomac TRACON
03:43PM 39.3833 -77.5167 90° East 186 214 4,000  Level Potomac TRACON
03:44PM 39.3667 -77.4667 113° Southeast 168 193 4,000  Level Potomac TRACON
03:45PM 39.3167 -77.4333 153° Southeast 192 221 4,000  Level Potomac TRACON
03:46PM 39.2667 -77.4167 166° South 188 216 4,000  Level Potomac TRACON
03:47PM 39.2167 -77.4000 166° South 182 209 4,000  Level Potomac TRACON
03:48PM 39.1667 -77.3833 166° South 182 209 4,000  Level Potomac TRACON
03:49PM 39.1167 -77.3833 180° South 193 222 4,000  Level Potomac TRACON
03:50PM 39.0667 -77.3833 180° South 179 206 4,000  Level Potomac TRACON
03:51PM 39.0167 -77.3667 165° South 188 216 4,000  Level Potomac TRACON
03:52PM 38.9667 -77.3833 195° South 195 224 4,000  Level Potomac TRACON
03:53PM 38.9000 -77.3833 180° South 198 228 4,000  Level Potomac TRACON
03:54PM 38.8500 -77.3833 180° South 177 204 4,000 -540 Level Potomac TRACON
03:55PM 38.8167 -77.3833 180° South 178 205 3,000 -540 Descending Potomac TRACON
03:56PM 38.7667 -77.3667 165° South 179 206 3,000  Level Potomac TRACON
03:57PM 38.7167 -77.3667 180° South 166 191 3,000  Level Potomac TRACON
03:58PM 38.6667 -77.3500 165° South 173 199 3,000  Level Potomac TRACON
03:59PM 38.6167 -77.3500 180° South 181 208 3,000  Level Potomac TRACON
04:00PM 38.6000 -77.4000 247° West 202 232 3,000  Level Potomac TRACON
04:01PM 38.6333 -77.4500 310° West 166 191 3,000  Level Potomac TRACON
04:02PM 38.6667 -77.4333 21° North 140 161 3,000  Level Potomac TRACON
04:03PM 38.7000 -77.4333 360° North 142 163 3,000  Level Potomac TRACON
04:04PM 38.7500 -77.4333 360° North 149 171 3,000 -60 Level Potomac TRACON
04:05PM 38.8000 -77.4333 360° North 147 169 2,900 -480 Descending Potomac TRACON
04:06PM 38.8333 -77.4333 360° North 132 152 2,100 -660 Descending Potomac TRACON
04:07PM 38.8667 -77.4333 360° North 97 112 1,600 -540 Descending Potomac TRACON
04:08PM 38.8833 -77.4333 360° North 95 109 1,100 -540 Descending Potomac TRACON
04:09PM 38.9167 -77.4333 360° North 104 120 500 -600 Descending Potomac TRACON
04:11PM 38.9333 -77.4500 349° North  Level FlightAware Approximate
04:18PM 38.9474 -77.4599 349° North  Level Estimated
04:19PM 38.9474 -77.4599 349° North  Level Estimated
04:20PM 38.9474 -77.4599 349° North  Level Estimated
04:21PM 38.9474 -77.4599 349° North  Level Estimated